Time;durP1;ratioP1;P1;durP2;ratioP2;P2;SDS_P1;SDS_P2;PMS_P1;PMS_P2;Temp;Humidity;BMP_temperature;BMP_pressure;BME280_temperature;BME280_humidity;BME280_pressure;Samples;Min_cycle;Max_cycle;Signal;HPM_P1;HPM_P2
2021/07/28 00:23:33;;;;;;;;;;;;;;;;;;;;;
2021/07/28 00:40:06;;;;;;;;;;;;;;;;;;;;;
2021/07/28 00:46:36;;;;;;;7.22;4.95;;;21.10;93.10;;;;;;5008152;28;20458;-90
2021/07/28 00:49:29;;;;;;;9.75;6.00;;;21.10;93.30;;;;;;5040346;28;20060;-91
2021/07/28 01:02:30;;;;;;;8.85;5.30;;;21.10;93.00;;;;;;4960720;28;20043;-90
2021/07/28 01:05:26;;;;;;;9.30;4.95;;;21.20;93.40;;;;;;5040048;28;20037;-90
2021/07/28 01:08:15;;;;;;;8.88;5.63;;;21.20;94.10;;;;;;5046677;28;20021;-89
2021/07/28 01:10:41;;;;;;;7.63;5.50;;;21.20;93.90;;;;;;5047548;28;20033;-89
2021/07/28 01:13:07;;;;;;;10.70;5.32;;;21.20;94.20;;;;;;5040356;28;20468;-89
2021/07/28 01:15:40;;;;;;;9.65;6.60;;;21.20;94.40;;;;;;5039397;28;20033;-90
2021/07/28 01:18:30;;;;;;;9.40;5.90;;;21.20;94.50;;;;;;5039918;28;20348;-90
2021/07/28 01:21:16;;;;;;;7.97;6.40;;;21.10;94.90;;;;;;5039830;28;20037;-91
2021/07/28 01:23:52;;;;;;;9.30;6.85;;;21.00;95.60;;;;;;5039916;28;20037;-89
2021/07/28 01:26:34;;;;;;;15.93;7.05;;;20.90;95.50;;;;;;5039901;28;20513;-89
2021/07/28 01:29:00;;;;;;;12.10;6.60;;;20.70;95.90;;;;;;5039446;28;20067;-89
2021/07/28 01:31:26;;;;;;;9.75;6.47;;;20.50;96.30;;;;;;5039529;28;20037;-87
2021/07/28 01:33:51;;;;;;;13.90;6.75;;;20.40;96.70;;;;;;5039241;28;20044;-88
2021/07/28 01:36:38;;;;;;;10.07;7.03;;;20.30;96.60;;;;;;5021249;28;20044;-89
2021/07/28 01:39:12;;;;;;;9.30;6.50;;;20.10;97.10;;;;;;5035980;28;20415;-89
2021/07/28 01:41:58;;;;;;;10.98;6.63;;;19.90;97.60;;;;;;5019668;28;20046;-89
2021/07/28 01:44:27;;;;;;;9.05;6.30;;;19.80;98.10;;;;;;5028719;28;20133;-88
2021/07/28 01:50:21;;;;;;;8.15;5.25;;;19.70;97.90;;;;;;4999816;28;20030;-88
2021/07/28 01:52:47;;;;;;;9.52;5.68;;;19.60;98.00;;;;;;5019317;28;20073;-88
2021/07/28 01:55:13;;;;;;;7.22;5.53;;;19.50;98.00;;;;;;5018933;28;20030;-88
2021/07/28 01:57:44;;;;;;;7.10;5.28;;;19.50;97.90;;;;;;5019737;28;20052;-90
2021/07/28 02:03:24;;;;;;;9.15;5.15;;;19.40;98.10;;;;;;4978504;28;20074;-88
2021/07/28 02:06:06;;;;;;;7.45;5.35;;;19.40;98.10;;;;;;5017751;28;20038;-87
2021/07/28 02:13:01;;;;;;;;;;;;;;;;;;;;;
2021/07/28 02:15:58;;;;;;;6.43;4.55;;;19.40;98.00;;;;;;5017188;28;20088;-88
2021/07/28 02:18:42;;;;;;;8.82;5.28;;;19.40;98.30;;;;;;5019586;28;20037;-88
2021/07/28 02:21:23;;;;;;;10.10;5.38;;;19.40;98.60;;;;;;5024842;28;20060;-89
2021/07/28 02:23:58;;;;;;;10.20;5.57;;;19.40;98.70;;;;;;5020747;28;20030;-87
2021/07/28 02:26:29;;;;;;;6.93;4.70;;;19.40;98.70;;;;;;5020824;28;20029;-89
2021/07/28 02:29:15;;;;;;;;;;;;;;;;;;;;;
2021/07/28 02:31:46;;;;;;;6.75;5.38;;;19.40;98.80;;;;;;5018955;28;20112;-88
2021/07/28 02:34:12;;;;;;;8.23;5.45;;;19.40;99.00;;;;;;5017869;28;20121;-88
2021/07/28 02:36:59;;;;;;;10.15;5.85;;;19.40;99.00;;;;;;5018846;28;20057;-88
2021/07/28 02:39:36;;;;;;;9.20;6.40;;;19.40;99.20;;;;;;5033836;28;20041;-89
2021/07/28 02:42:50;;;;;;;9.20;6.22;;;19.40;99.30;;;;;;5017718;28;20059;-88
2021/07/28 02:45:22;;;;;;;8.85;6.20;;;19.40;99.30;;;;;;5027187;28;20038;-88
2021/07/28 02:48:24;;;;;;;10.88;5.82;;;19.40;99.40;;;;;;5018180;28;20070;-88
2021/07/28 02:51:38;;;;;;;8.50;5.93;;;19.40;99.50;;;;;;5035136;28;20034;-89
2021/07/28 02:54:55;;;;;;;7.32;5.93;;;19.40;99.50;;;;;;5034915;28;20053;-89
2021/07/28 02:57:26;;;;;;;9.32;6.22;;;19.30;99.60;;;;;;5032932;28;20118;-89
2021/07/28 02:59:57;;;;;;;8.52;5.88;;;19.40;99.70;;;;;;5017542;28;20036;-89
2021/07/28 03:02:38;;;;;;;7.18;5.82;;;19.40;99.80;;;;;;5018278;28;20038;-89
2021/07/28 03:05:14;;;;;;;7.70;6.13;;;19.40;99.90;;;;;;5018301;28;20561;-89
2021/07/28 03:07:45;;;;;;;9.10;5.35;;;19.40;99.90;;;;;;5034286;28;20049;-89
2021/07/28 03:10:24;;;;;;;10.10;5.85;;;19.40;99.90;;;;;;5018353;28;20034;-89
2021/07/28 03:12:55;;;;;;;9.40;6.30;;;19.50;99.90;;;;;;5018016;28;20404;-89
2021/07/28 03:15:24;;;;;;;8.95;5.90;;;19.50;99.90;;;;;;5017886;28;20042;-89
2021/07/28 03:18:04;;;;;;;8.93;5.93;;;19.50;99.80;;;;;;5018617;28;20037;-88
2021/07/28 03:21:26;;;;;;;14.25;6.03;;;19.50;99.80;;;;;;5018236;28;20096;-89
2021/07/28 03:25:00;;;;;;;16.47;7.47;;;19.50;99.70;;;;;;5018370;28;20042;-89
2021/07/28 03:27:37;;;;;;;7.60;5.93;;;19.50;99.60;;;;;;5019942;28;20101;-89
2021/07/28 03:31:02;;;;;;;10.57;6.10;;;19.50;99.70;;;;;;5027245;28;20130;-88
2021/07/28 03:34:25;;;;;;;;;;;;;;;;;;;;;
2021/07/28 03:41:04;;;;;;;11.98;7.18;;;19.50;99.80;;;;;;4973926;28;20054;-89
2021/07/28 03:47:54;;;;;;;11.68;7.60;;;19.50;99.70;;;;;;4830125;29;20115;-89
2021/07/28 03:51:06;;;;;;;14.15;7.00;;;19.50;99.70;;;;;;4827822;29;20038;-89
2021/07/28 03:57:26;;;;;;;10.38;6.90;;;19.50;99.90;;;;;;4888849;29;20040;-89
2021/07/28 04:03:33;;;;;;;11.40;6.65;;;19.50;99.90;;;;;;5009646;28;20137;-88
2021/07/28 04:06:50;;;;;;;10.77;7.53;;;19.50;99.90;;;;;;5021423;28;20084;-89
2021/07/28 04:09:29;;;;;;;9.18;6.25;;;19.50;99.90;;;;;;5021473;28;20100;-90
2021/07/28 04:11:55;;;;;;;8.57;5.18;;;19.50;99.80;;;;;;5021459;28;20033;-89
2021/07/28 04:14:27;;;;;;;8.43;5.90;;;19.50;99.50;;;;;;5020966;28;20104;-88
2021/07/28 04:16:52;;;;;;;11.60;5.73;;;19.50;99.40;;;;;;5020543;28;20360;-88
2021/07/28 04:19:20;;;;;;;7.43;5.57;;;19.50;99.00;;;;;;5020890;28;20030;-87
2021/07/28 04:21:52;;;;;;;6.72;5.38;;;19.50;99.00;;;;;;5021266;28;20030;-88
2021/07/28 04:24:19;;;;;;;6.55;4.95;;;19.50;99.00;;;;;;5020546;28;20061;-88
2021/07/28 04:26:45;;;;;;;6.53;5.13;;;19.50;98.80;;;;;;5020256;28;20042;-87
2021/07/28 04:29:11;;;;;;;7.57;5.28;;;19.40;98.10;;;;;;5021640;28;20321;-88
2021/07/28 04:31:36;;;;;;;6.80;4.82;;;19.30;98.40;;;;;;5035505;28;20058;-86
2021/07/28 04:34:02;;;;;;;7.25;4.90;;;19.30;98.70;;;;;;5020689;28;20052;-88
2021/07/28 04:36:28;;;;;;;6.97;5.47;;;19.30;98.70;;;;;;5019787;28;20372;-89
2021/07/28 04:38:53;;;;;;;8.57;5.65;;;19.30;98.80;;;;;;5021353;28;20053;-89
2021/07/28 04:41:19;;;;;;;7.20;5.57;;;19.30;99.00;;;;;;5021192;28;20081;-87
2021/07/28 04:43:44;;;;;;;6.93;5.82;;;19.30;99.30;;;;;;5019753;28;20061;-88
2021/07/28 04:46:10;;;;;;;10.13;5.75;;;19.30;99.10;;;;;;5020407;28;20034;-87
2021/07/28 04:48:36;;;;;;;11.25;6.45;;;19.30;99.30;;;;;;5020220;28;20092;-88
2021/07/28 04:51:02;;;;;;;9.07;6.43;;;19.30;99.40;;;;;;5018394;28;20128;-87
2021/07/28 04:53:30;;;;;;;8.07;6.28;;;19.30;99.20;;;;;;5020405;28;20038;-86
2021/07/28 04:55:58;;;;;;;11.02;6.28;;;19.20;99.50;;;;;;5033525;28;20156;-88
2021/07/28 04:58:24;;;;;;;11.45;7.35;;;19.20;99.50;;;;;;5019704;28;20038;-88
2021/07/28 05:00:51;;;;;;;10.50;6.75;;;19.20;99.60;;;;;;5018983;28;20041;-87
2021/07/28 05:03:17;;;;;;;9.80;7.07;;;19.20;99.80;;;;;;5019228;28;20559;-87
2021/07/28 05:05:43;;;;;;;8.70;6.53;;;19.20;99.70;;;;;;5019557;28;20040;-87
2021/07/28 05:08:08;;;;;;;10.82;6.10;;;19.20;99.90;;;;;;5019166;28;20053;-88
2021/07/28 05:10:35;;;;;;;7.53;6.18;;;19.30;99.70;;;;;;5019241;28;20041;-88
2021/07/28 05:13:00;;;;;;;10.98;6.07;;;19.20;99.30;;;;;;5018796;28;20337;-87
2021/07/28 05:15:26;;;;;;;8.80;6.28;;;19.30;99.40;;;;;;5019374;28;20084;-87
2021/07/28 05:17:51;;;;;;;11.65;6.45;;;19.30;99.50;;;;;;5018637;28;20076;-87
2021/07/28 05:20:18;;;;;;;8.98;6.97;;;19.30;99.50;;;;;;5020084;28;20047;-87
2021/07/28 05:22:44;;;;;;;8.15;6.35;;;19.40;99.60;;;;;;5018762;28;20048;-88
2021/07/28 05:25:10;;;;;;;7.47;5.68;;;19.40;99.50;;;;;;5018800;28;20103;-87
2021/07/28 05:27:35;;;;;;;12.05;5.88;;;19.50;99.30;;;;;;5020253;28;20388;-87
2021/07/28 05:30:02;;;;;;;9.93;5.75;;;19.50;99.10;;;;;;5019203;28;20065;-88
2021/07/28 05:32:28;;;;;;;9.20;6.32;;;19.60;99.30;;;;;;5018434;28;20038;-88
2021/07/28 05:34:53;;;;;;;11.32;5.75;;;19.70;99.30;;;;;;5018079;28;20041;-87
2021/07/28 05:37:21;;;;;;;8.35;6.20;;;19.70;98.90;;;;;;5018675;28;20136;-87
2021/07/28 05:39:47;;;;;;;10.85;5.35;;;19.80;99.10;;;;;;5018779;28;20125;-88
2021/07/28 05:42:13;;;;;;;8.50;5.60;;;19.80;98.80;;;;;;5019815;28;20432;-87
2021/07/28 05:44:39;;;;;;;10.38;5.78;;;19.80;98.80;;;;;;5018741;28;20041;-87
2021/07/28 05:47:05;;;;;;;15.93;6.28;;;19.90;98.70;;;;;;5018586;28;20046;-86
2021/07/28 05:49:31;;;;;;;10.10;5.95;;;19.90;98.70;;;;;;5018896;28;20116;-87
2021/07/28 05:51:56;;;;;;;8.07;5.28;;;19.90;98.60;;;;;;5019517;28;20906;-87
2021/07/28 05:54:22;;;;;;;8.93;5.88;;;20.00;98.70;;;;;;5024425;28;20034;-88
2021/07/28 05:56:47;;;;;;;12.50;6.97;;;19.90;98.20;;;;;;5028681;28;20045;-87
2021/07/28 05:59:13;;;;;;;8.60;5.93;;;19.90;98.50;;;;;;5019023;28;20030;-88
2021/07/28 06:01:38;;;;;;;6.75;5.55;;;19.90;98.50;;;;;;5019175;28;20104;-87
2021/07/28 06:04:04;;;;;;;8.60;5.95;;;20.00;98.30;;;;;;5017825;28;20044;-86
2021/07/28 06:06:30;;;;;;;12.13;5.75;;;20.00;98.40;;;;;;5018199;28;20033;-88
2021/07/28 06:08:56;;;;;;;10.68;5.70;;;20.10;98.40;;;;;;5017904;28;20279;-89
2021/07/28 06:11:22;;;;;;;12.27;6.43;;;20.20;98.40;;;;;;5018074;28;20033;-88
2021/07/28 06:13:48;;;;;;;7.78;5.55;;;20.20;98.50;;;;;;5018110;28;20200;-89
2021/07/28 06:16:13;;;;;;;13.27;6.80;;;20.30;98.00;;;;;;5017853;28;20065;-88
2021/07/28 06:18:39;;;;;;;11.13;6.22;;;20.20;97.80;;;;;;5017833;28;20041;-88
2021/07/28 06:21:04;;;;;;;8.77;6.50;;;20.20;98.10;;;;;;5018395;28;20041;-91
2021/07/28 06:23:30;;;;;;;10.07;6.38;;;20.30;98.20;;;;;;5018359;28;20038;-89
2021/07/28 06:25:57;;;;;;;10.65;6.07;;;20.20;98.20;;;;;;5018058;28;20058;-90
2021/07/28 06:28:22;;;;;;;11.15;7.10;;;20.20;98.40;;;;;;5018932;28;20056;-88
2021/07/28 06:30:51;;;;;;;12.23;6.30;;;20.20;98.30;;;;;;5032767;28;20365;-88
2021/07/28 06:33:21;;;;;;;11.10;6.43;;;20.20;98.30;;;;;;5019356;28;20068;-86
2021/07/28 06:35:48;;;;;;;7.70;5.88;;;20.20;98.30;;;;;;5018675;28;20034;-89
2021/07/28 06:38:13;;;;;;;10.07;6.78;;;20.20;98.30;;;;;;5017635;28;20113;-88
2021/07/28 06:40:39;;;;;;;12.10;7.47;;;20.20;98.20;;;;;;5021350;28;20061;-88
2021/07/28 06:43:05;;;;;;;10.57;6.68;;;20.20;98.30;;;;;;5018560;28;20038;-89
2021/07/28 06:45:30;;;;;;;18.25;7.03;;;20.30;98.40;;;;;;5017755;28;20037;-88
2021/07/28 06:47:56;;;;;;;6.57;5.30;;;20.30;98.30;;;;;;5017279;28;20649;-88
2021/07/28 06:50:21;;;;;;;10.93;6.40;;;20.40;98.70;;;;;;5017318;28;20049;-89
2021/07/28 06:52:47;;;;;;;8.98;5.53;;;20.40;98.30;;;;;;5017153;28;20385;-88
2021/07/28 06:55:13;;;;;;;11.32;5.65;;;20.60;98.30;;;;;;5017129;28;20433;-87
2021/07/28 06:57:39;;;;;;;9.48;6.07;;;20.70;98.30;;;;;;5017091;28;20041;-88
2021/07/28 07:00:07;;;;;;;8.13;5.07;;;20.80;97.40;;;;;;5020069;28;20053;-87
2021/07/28 07:02:33;;;;;;;8.73;4.90;;;21.00;97.30;;;;;;5029656;28;20064;-89
2021/07/28 07:04:58;;;;;;;7.80;5.32;;;21.10;97.30;;;;;;5028779;28;20041;-88
2021/07/28 07:07:24;;;;;;;6.50;4.88;;;21.20;96.70;;;;;;5027300;28;20301;-87
2021/07/28 07:09:51;;;;;;;6.20;4.80;;;21.30;96.60;;;;;;5019225;28;20158;-87
2021/07/28 07:12:18;;;;;;;7.32;4.43;;;21.50;96.40;;;;;;5018237;28;20480;-88
2021/07/28 07:14:43;;;;;;;5.05;3.67;;;21.60;95.30;;;;;;5021225;28;20038;-87
2021/07/28 07:17:08;;;;;;;4.80;3.80;;;21.70;95.00;;;;;;5021374;28;20048;-88
2021/07/28 07:19:34;;;;;;;5.55;3.95;;;21.80;94.80;;;;;;5021171;28;20049;-89
2021/07/28 07:22:00;;;;;;;5.32;3.80;;;21.90;94.40;;;;;;5021127;28;20038;-89
2021/07/28 07:24:25;;;;;;;4.57;3.70;;;22.00;94.50;;;;;;5020943;28;20042;-89
2021/07/28 07:26:51;;;;;;;4.63;3.63;;;22.10;94.80;;;;;;5021032;28;20309;-88
2021/07/28 07:29:16;;;;;;;4.65;3.10;;;22.10;94.10;;;;;;5020808;28;20313;-89
2021/07/28 07:31:42;;;;;;;4.85;3.30;;;22.10;94.60;;;;;;5020609;28;20120;-89
2021/07/28 07:34:08;;;;;;;8.15;3.80;;;22.20;94.00;;;;;;5020621;28;20436;-88
2021/07/28 07:36:33;;;;;;;6.65;3.00;;;22.30;92.90;;;;;;5020617;28;20033;-88
2021/07/28 07:38:59;;;;;;;4.68;3.28;;;22.30;93.10;;;;;;5021126;28;20049;-90
2021/07/28 07:41:27;;;;;;;3.30;2.63;;;22.40;93.10;;;;;;5035651;28;20096;-88
2021/07/28 07:43:58;;;;;;;6.90;3.38;;;22.40;93.00;;;;;;5026144;28;20507;-88
2021/07/28 07:46:24;;;;;;;4.33;2.83;;;22.50;91.00;;;;;;5021802;28;20051;-88
2021/07/28 07:48:50;;;;;;;3.03;2.20;;;22.50;91.00;;;;;;5020660;28;20099;-88
2021/07/28 07:51:19;;;;;;;5.63;3.22;;;22.50;90.50;;;;;;5021035;28;20053;-88
2021/07/28 07:53:44;;;;;;;3.45;2.58;;;22.50;90.30;;;;;;5020836;28;20038;-88
2021/07/28 07:56:10;;;;;;;6.55;2.60;;;22.50;90.60;;;;;;5020873;28;20041;-88
2021/07/28 07:58:39;;;;;;;4.25;2.80;;;22.50;90.80;;;;;;5020960;28;20045;-90
2021/07/28 08:01:06;;;;;;;7.53;3.22;;;22.60;91.40;;;;;;5020727;28;20041;-89
2021/07/28 08:03:31;;;;;;;6.65;2.88;;;22.60;90.70;;;;;;5020884;28;20103;-89
2021/07/28 08:06:06;;;;;;;6.97;2.97;;;22.70;90.50;;;;;;5021774;28;20128;-90
2021/07/28 08:08:31;;;;;;;3.10;2.63;;;22.70;90.60;;;;;;5021557;28;20046;-89
2021/07/28 08:11:04;;;;;;;6.88;2.70;;;22.70;90.80;;;;;;5021072;28;20038;-88
2021/07/28 08:13:30;;;;;;;3.78;2.67;;;22.80;90.10;;;;;;5020706;28;20416;-87
2021/07/28 08:16:25;;;;;;;3.15;2.40;;;22.90;90.00;;;;;;5023886;28;20045;-91
2021/07/28 08:18:58;;;;;;;4.70;2.95;;;23.00;89.10;;;;;;5023939;28;20382;-90
2021/07/28 08:21:24;;;;;;;5.13;2.70;;;22.90;88.80;;;;;;5021062;28;20042;-89
2021/07/28 08:23:49;;;;;;;4.65;2.95;;;22.80;89.00;;;;;;5020763;28;20045;-88
2021/07/28 08:26:21;;;;;;;3.63;2.83;;;22.80;90.50;;;;;;5020255;28;20049;-90
2021/07/28 08:28:55;;;;;;;4.15;3.05;;;22.80;88.30;;;;;;5020300;28;20041;-91
2021/07/28 08:31:21;;;;;;;4.82;2.63;;;22.70;88.40;;;;;;5020872;28;20038;-90
2021/07/28 08:33:47;;;;;;;9.93;2.75;;;22.50;90.30;;;;;;5020679;28;20044;-90
2021/07/28 08:36:18;;;;;;;3.88;3.05;;;22.50;90.30;;;;;;5020590;28;20045;-90
2021/07/28 08:38:50;;;;;;;4.60;2.90;;;22.50;90.40;;;;;;5021560;28;20069;-90
2021/07/28 08:41:22;;;;;;;4.68;2.85;;;22.60;90.20;;;;;;5020152;28;20034;-90
2021/07/28 08:43:53;;;;;;;3.22;2.63;;;22.70;90.00;;;;;;5020082;28;20056;-90
2021/07/28 08:46:23;;;;;;;4.00;3.20;;;22.70;90.10;;;;;;5020687;28;20042;-90
2021/07/28 08:48:55;;;;;;;3.63;2.90;;;22.70;89.40;;;;;;5020422;28;20042;-91
2021/07/28 08:51:26;;;;;;;3.50;2.70;;;22.80;90.30;;;;;;5020297;28;20042;-91
2021/07/28 08:53:55;;;;;;;4.88;2.80;;;22.90;90.10;;;;;;5020246;28;20034;-91
2021/07/28 08:56:26;;;;;;;4.60;3.00;;;23.00;89.50;;;;;;5019931;28;20434;-89
2021/07/28 08:59:00;;;;;;;4.72;2.97;;;23.10;88.70;;;;;;5019586;28;20353;-89
2021/07/28 09:01:34;;;;;;;7.15;2.50;;;23.20;88.30;;;;;;5019577;28;20038;-88
2021/07/28 09:04:06;;;;;;;4.75;2.50;;;23.40;86.50;;;;;;5019414;28;20095;-90
2021/07/28 09:06:32;;;;;;;9.02;2.78;;;23.30;86.60;;;;;;5025266;28;20037;-87
2021/07/28 09:08:59;;;;;;;7.30;2.88;;;23.40;86.40;;;;;;5033594;28;20123;-87
2021/07/28 09:11:27;;;;;;;5.03;2.22;;;23.40;86.20;;;;;;5021801;28;20301;-90
2021/07/28 09:13:55;;;;;;;4.55;2.50;;;23.50;85.50;;;;;;5020403;28;20087;-89
2021/07/28 09:16:26;;;;;;;3.58;2.60;;;23.50;85.50;;;;;;5019274;28;20038;-88
2021/07/28 09:18:52;;;;;;;5.93;2.90;;;23.60;86.00;;;;;;5019554;28;20038;-87
2021/07/28 09:21:25;;;;;;;6.65;2.20;;;23.60;85.60;;;;;;5019592;28;20057;-89
2021/07/28 09:24:14;;;;;;;8.07;2.20;;;23.60;83.60;;;;;;5022460;28;20033;-89
2021/07/28 09:26:53;;;;;;;3.28;2.50;;;23.70;84.90;;;;;;5024020;28;20306;-88
2021/07/28 09:29:24;;;;;;;4.85;2.70;;;23.70;85.00;;;;;;5019272;28;20042;-87
2021/07/28 09:32:14;;;;;;;4.38;2.60;;;23.80;85.60;;;;;;5018546;28;20364;-86
2021/07/28 09:34:40;;;;;;;5.00;2.65;;;23.90;83.50;;;;;;5019408;28;20033;-88
2021/07/28 09:37:35;;;;;;;4.13;2.58;;;24.00;84.40;;;;;;5018652;28;20038;-90
2021/07/28 09:40:03;;;;;;;3.67;2.42;;;24.00;83.30;;;;;;5020688;28;20041;-90
2021/07/28 09:42:41;;;;;;;3.85;2.55;;;24.10;84.70;;;;;;5024748;28;20046;-90
2021/07/28 09:45:12;;;;;;;3.38;2.13;;;24.20;81.20;;;;;;5033056;28;20068;-88
2021/07/28 09:47:53;;;;;;;4.07;2.72;;;24.20;81.20;;;;;;5019427;28;20283;-90
2021/07/28 09:50:19;;;;;;;3.65;2.40;;;24.30;80.40;;;;;;5020365;28;20065;-89
2021/07/28 09:52:58;;;;;;;5.13;1.83;;;24.50;81.20;;;;;;5019757;28;20049;-89
2021/07/28 09:55:32;;;;;;;3.80;2.50;;;24.70;83.00;;;;;;5018953;28;20095;-89
2021/07/28 09:57:59;;;;;;;2.50;2.05;;;25.00;79.70;;;;;;5018849;28;20100;-87
2021/07/28 10:00:29;;;;;;;3.92;2.47;;;25.30;77.30;;;;;;5018953;28;20037;-90
2021/07/28 10:03:04;;;;;;;3.45;2.40;;;25.50;77.40;;;;;;5018786;28;20092;-89
2021/07/28 10:05:31;;;;;;;2.33;1.70;;;25.60;78.90;;;;;;5018465;28;20053;-88
2021/07/28 10:08:01;;;;;;;4.03;2.30;;;25.70;76.90;;;;;;5018161;28;20065;-87
2021/07/28 10:10:30;;;;;;;3.85;2.33;;;25.80;77.20;;;;;;5018655;28;20045;-88
2021/07/28 10:12:58;;;;;;;3.78;2.63;;;25.80;78.00;;;;;;5018524;28;20405;-89
2021/07/28 10:15:26;;;;;;;4.03;2.97;;;25.80;78.00;;;;;;5018285;28;20038;-88
2021/07/28 10:17:53;;;;;;;3.35;1.80;;;25.80;77.20;;;;;;5027828;28;20030;-87
2021/07/28 10:20:18;;;;;;;3.45;2.00;;;25.80;76.40;;;;;;5020830;28;20065;-85
2021/07/28 10:22:44;;;;;;;2.90;2.33;;;25.90;76.70;;;;;;5017857;28;20041;-87
2021/07/28 10:25:15;;;;;;;4.15;2.20;;;26.00;75.20;;;;;;5017618;28;20042;-88
2021/07/28 10:27:43;;;;;;;5.68;2.53;;;26.00;75.10;;;;;;5017225;28;20057;-88
2021/07/28 10:30:15;;;;;;;2.72;2.20;;;26.00;74.60;;;;;;5017750;28;20367;-89
2021/07/28 10:32:45;;;;;;;6.65;2.33;;;25.90;77.10;;;;;;5034427;28;20033;-87
2021/07/28 10:35:17;;;;;;;4.40;2.45;;;26.00;75.10;;;;;;5029067;28;20038;-88
2021/07/28 10:37:43;;;;;;;3.33;2.83;;;26.00;74.00;;;;;;5029006;28;20057;-88
2021/07/28 10:40:21;;;;;;;2.88;1.90;;;26.10;75.70;;;;;;5020333;28;20386;-88
2021/07/28 10:42:46;;;;;;;2.90;2.00;;;26.10;74.80;;;;;;5018147;28;20184;-88
2021/07/28 10:45:12;;;;;;;3.97;1.98;;;26.00;74.10;;;;;;5019216;28;20069;-89
2021/07/28 10:47:45;;;;;;;3.40;2.08;;;26.10;75.70;;;;;;5017069;28;20045;-88
2021/07/28 10:50:25;;;;;;;3.55;2.15;;;26.10;76.70;;;;;;5017030;28;20038;-88
2021/07/28 10:52:51;;;;;;;4.32;2.15;;;26.20;76.10;;;;;;5017066;28;20038;-88
2021/07/28 10:55:21;;;;;;;4.80;2.90;;;26.20;74.00;;;;;;5012442;28;20045;-89
2021/07/28 10:57:53;;;;;;;2.55;2.08;;;26.20;72.70;;;;;;5032485;28;20048;-89
2021/07/28 11:00:38;;;;;;;3.38;2.17;;;26.30;74.00;;;;;;5017056;28;20333;-90
2021/07/28 11:03:04;;;;;;;2.22;1.85;;;26.30;74.90;;;;;;5017517;28;20041;-90
2021/07/28 11:05:51;;;;;;;3.92;2.47;;;26.30;75.20;;;;;;5024947;28;20549;-88
2021/07/28 11:08:21;;;;;;;4.95;2.88;;;26.20;74.50;;;;;;5012281;28;20038;-89
2021/07/28 11:10:58;;;;;;;2.88;2.00;;;26.20;75.90;;;;;;5018137;28;20034;-92
2021/07/28 11:13:26;;;;;;;5.72;2.35;;;26.30;76.30;;;;;;5001764;28;20038;-87
2021/07/28 11:15:54;;;;;;;2.42;2.17;;;26.30;74.20;;;;;;4997539;28;20038;-89
2021/07/28 11:18:41;;;;;;;3.00;2.30;;;26.20;73.70;;;;;;4996893;28;20038;-89
2021/07/28 11:21:16;;;;;;;2.65;1.88;;;26.20;75.90;;;;;;5013229;28;20053;-88
2021/07/28 11:23:45;;;;;;;6.90;1.98;;;26.30;75.10;;;;;;4997784;28;20050;-89
2021/07/28 11:26:30;;;;;;;6.30;2.38;;;26.20;75.20;;;;;;4998006;28;20049;-88
2021/07/28 11:28:59;;;;;;;2.90;2.22;;;26.10;74.10;;;;;;4997043;28;20038;-88
2021/07/28 11:31:33;;;;;;;3.45;2.20;;;26.10;73.30;;;;;;4997975;28;20417;-89
2021/07/28 11:34:22;;;;;;;2.45;1.95;;;26.10;72.60;;;;;;5014413;28;20045;-88
2021/07/28 11:36:56;;;;;;;2.45;1.92;;;26.30;75.50;;;;;;4987284;28;20057;-89
2021/07/28 11:39:22;;;;;;;6.00;2.25;;;26.40;72.30;;;;;;5014758;28;20547;-89
2021/07/28 11:41:50;;;;;;;2.67;1.90;;;26.50;71.60;;;;;;4997348;28;20046;-89
2021/07/28 11:44:16;;;;;;;6.45;2.63;;;26.60;71.90;;;;;;4998945;28;20034;-89
2021/07/28 11:46:53;;;;;;;2.53;1.77;;;26.60;71.50;;;;;;5014341;28;20092;-90
2021/07/28 11:49:24;;;;;;;2.30;1.67;;;26.60;69.50;;;;;;5005995;28;20046;-90
2021/07/28 11:51:57;;;;;;;2.72;2.17;;;26.50;70.00;;;;;;4998505;28;20042;-89
2021/07/28 11:54:23;;;;;;;2.28;1.80;;;26.50;68.90;;;;;;4997444;28;20038;-90
2021/07/28 11:56:52;;;;;;;2.97;1.73;;;26.50;70.90;;;;;;4997511;28;20121;-91
2021/07/28 11:59:23;;;;;;;9.10;2.00;;;26.40;70.40;;;;;;4997109;28;20048;-88
2021/07/28 12:01:50;;;;;;;7.10;2.00;;;26.40;71.80;;;;;;5000082;28;20092;-86
2021/07/28 12:04:27;;;;;;;4.25;2.10;;;26.30;74.00;;;;;;5000801;28;20113;-88
2021/07/28 12:06:53;;;;;;;2.25;1.88;;;26.30;72.50;;;;;;4999926;28;20057;-86
2021/07/28 12:09:27;;;;;;;4.25;2.53;;;26.30;71.10;;;;;;5000140;28;20038;-87
2021/07/28 12:11:56;;;;;;;3.90;2.05;;;26.20;71.10;;;;;;4999445;28;20070;-88
2021/07/28 12:14:31;;;;;;;4.00;3.05;;;26.20;73.00;;;;;;5016473;28;20092;-88
2021/07/28 12:17:03;;;;;;;4.90;2.90;;;26.30;73.10;;;;;;5000179;28;20042;-88
2021/07/28 12:19:37;;;;;;;;;;;26.30;72.00;;;;;;5017374;28;20050;-87
2021/07/28 12:22:11;;;;;;;2.90;2.28;;;26.30;72.60;;;;;;5000885;28;19910;-87
2021/07/28 12:24:44;;;;;;;2.38;1.80;;;26.30;70.70;;;;;;5016050;28;20389;-89
2021/07/28 12:27:25;;;;;;;5.57;2.45;;;26.20;72.10;;;;;;5000649;28;20038;-89
2021/07/28 12:29:59;;;;;;;3.72;1.95;;;26.20;73.00;;;;;;5029741;28;20055;-89
2021/07/28 12:32:43;;;;;;;3.13;2.20;;;26.30;71.90;;;;;;5008751;28;20038;-89
2021/07/28 12:35:14;;;;;;;3.22;2.17;;;26.30;72.10;;;;;;5015928;28;20034;-89
2021/07/28 12:37:41;;;;;;;7.72;2.35;;;26.40;72.00;;;;;;5015878;28;20042;-89
2021/07/28 12:40:07;;;;;;;3.08;1.98;;;26.60;72.00;;;;;;5000902;28;20168;-91
2021/07/28 12:42:33;;;;;;;3.45;1.83;;;26.70;71.30;;;;;;5016231;28;20053;-88
2021/07/28 12:44:59;;;;;;;3.10;2.00;;;26.90;72.40;;;;;;4999902;28;20050;-89
2021/07/28 12:47:25;;;;;;;2.88;1.77;;;27.00;72.40;;;;;;5016606;28;20053;-90
2021/07/28 12:49:51;;;;;;;2.05;1.80;;;27.20;70.30;;;;;;4999245;28;20397;-90
2021/07/28 12:52:17;;;;;;;2.50;2.20;;;27.20;70.50;;;;;;5015552;28;20046;-89
2021/07/28 12:54:42;;;;;;;6.78;1.95;;;27.20;70.40;;;;;;4998634;28;20038;-87
2021/07/28 12:57:08;;;;;;;3.35;2.47;;;27.30;71.10;;;;;;4999852;28;20053;-89
2021/07/28 12:59:33;;;;;;;4.38;2.20;;;27.20;69.80;;;;;;4998695;28;20049;-88
2021/07/28 13:02:01;;;;;;;5.28;1.98;;;27.20;70.00;;;;;;4999851;28;20050;-90
2021/07/28 13:04:27;;;;;;;4.40;2.40;;;27.10;70.00;;;;;;5003062;28;20039;-88
2021/07/28 13:07:00;;;;;;;2.72;1.95;;;26.90;69.70;;;;;;5011575;28;20366;-88
2021/07/28 13:09:25;;;;;;;;;;;26.70;70.70;;;;;;4999492;28;20117;-88
2021/07/28 13:11:51;;;;;;;5.20;2.50;;;26.70;70.70;;;;;;4998829;28;20245;-87
2021/07/28 13:14:16;;;;;;;4.78;2.20;;;26.60;70.80;;;;;;5015378;28;20038;-88
2021/07/28 13:16:41;;;;;;;2.58;1.77;;;26.60;70.30;;;;;;5009336;28;20054;-89
2021/07/28 13:19:07;;;;;;;3.58;1.85;;;26.40;70.30;;;;;;5024062;28;20145;-90
2021/07/28 13:21:33;;;;;;;3.28;2.08;;;26.30;70.90;;;;;;4998980;28;20428;-89
2021/07/28 13:23:58;;;;;;;6.53;2.00;;;26.30;71.00;;;;;;4998675;28;20058;-87
2021/07/28 13:26:24;;;;;;;2.88;1.70;;;26.30;71.70;;;;;;4998366;28;20121;-88
2021/07/28 13:28:49;;;;;;;2.92;1.65;;;26.30;71.20;;;;;;5014285;28;20042;-88
2021/07/28 13:31:15;;;;;;;3.75;1.80;;;26.30;70.00;;;;;;4999550;28;20031;-87
2021/07/28 13:33:40;;;;;;;4.47;2.10;;;26.30;71.20;;;;;;4999088;28;20057;-88
2021/07/28 13:36:06;;;;;;;2.53;1.60;;;26.20;70.10;;;;;;5015214;28;20037;-88
2021/07/28 13:38:32;;;;;;;1.98;1.73;;;26.10;72.40;;;;;;5006247;28;20042;-89
2021/07/28 13:40:57;;;;;;;4.70;1.75;;;26.10;72.20;;;;;;5000735;28;20133;-88
2021/07/28 13:43:23;;;;;;;2.03;1.70;;;26.10;70.90;;;;;;4999140;28;20031;-88
2021/07/28 13:45:48;;;;;;;2.58;1.70;;;26.10;70.50;;;;;;4998726;28;20038;-86
2021/07/28 13:48:14;;;;;;;2.03;1.60;;;26.00;70.60;;;;;;5014354;28;20085;-89
2021/07/28 13:50:41;;;;;;;2.20;1.67;;;25.90;71.00;;;;;;4997791;28;20042;-88
2021/07/28 13:53:07;;;;;;;2.80;2.03;;;25.90;71.60;;;;;;4998691;28;20034;-88
2021/07/28 13:55:32;;;;;;;5.10;2.15;;;25.90;71.50;;;;;;4997988;28;20031;-88
2021/07/28 13:57:58;;;;;;;6.50;1.90;;;25.90;70.90;;;;;;4998459;28;20410;-88
2021/07/28 14:00:24;;;;;;;2.35;1.70;;;25.90;71.70;;;;;;4997586;28;20402;-87
2021/07/28 14:02:49;;;;;;;2.30;1.50;;;26.00;71.70;;;;;;4998863;28;20092;-88
2021/07/28 14:05:15;;;;;;;3.30;1.70;;;26.00;72.20;;;;;;4999134;28;20133;-90
2021/07/28 14:07:41;;;;;;;2.35;1.60;;;25.90;71.40;;;;;;5000788;28;20042;-88
2021/07/28 14:10:07;;;;;;;2.33;1.50;;;25.90;71.20;;;;;;5003653;28;20049;-88
2021/07/28 14:12:33;;;;;;;2.75;1.65;;;25.90;70.90;;;;;;5019862;28;20433;-88
2021/07/28 14:14:59;;;;;;;1.33;1.20;;;25.90;71.40;;;;;;4998573;28;20062;-90
2021/07/28 14:17:25;;;;;;;2.67;2.00;;;25.90;71.20;;;;;;4999814;28;20081;-87
2021/07/28 14:19:51;;;;;;;3.85;1.83;;;25.90;71.80;;;;;;5001077;28;20390;-88
2021/07/28 14:22:17;;;;;;;3.35;1.92;;;25.70;71.90;;;;;;4998795;28;20069;-87
2021/07/28 14:24:42;;;;;;;2.40;2.20;;;25.60;71.90;;;;;;5002346;28;20049;-87
2021/07/28 14:27:08;;;;;;;3.33;2.13;;;25.60;72.00;;;;;;5013081;28;20042;-89
2021/07/28 14:29:34;;;;;;;2.67;2.00;;;25.60;73.10;;;;;;5008202;28;20045;-87